createdAt,value
2023-01-22T00:01:33.319Z,2.04
2023-01-22T00:04:33.737Z,2.01
2023-01-22T00:07:33.353Z,2.01
2023-01-22T00:10:33.335Z,2.04
2023-01-22T00:13:36.381Z,2.06
2023-01-22T00:16:39.397Z,2.05
2023-01-22T00:19:40.928Z,2.02
2023-01-22T00:22:42.361Z,2.02
2023-01-22T00:25:44.369Z,2.06
2023-01-22T00:28:47.395Z,2.08
2023-01-22T00:31:54.599Z,2.07
2023-01-22T00:34:58.586Z,2.09
2023-01-22T00:38:00.446Z,2.10
2023-01-22T00:41:03.514Z,2.03
2023-01-22T00:44:04.403Z,2.00
2023-01-22T00:47:06.387Z,1.98
2023-01-22T00:50:08.420Z,1.99
2023-01-22T00:53:10.453Z,2.00
2023-01-22T00:56:14.507Z,1.98
2023-01-22T00:59:16.446Z,1.93
2023-01-22T01:02:17.755Z,1.91
2023-01-22T04:45:43.075Z,2.76
2023-01-22T04:48:45.906Z,2.85
2023-01-22T04:51:47.017Z,2.79
2023-01-22T04:54:48.071Z,2.77
2023-01-22T04:57:49.987Z,2.74
2023-01-22T05:00:50.956Z,2.70
2023-01-22T05:03:51.895Z,2.63
2023-01-22T05:06:54.931Z,2.56
2023-01-22T05:10:00.326Z,2.51
2023-01-22T05:13:03.143Z,2.49
2023-01-22T05:16:05.061Z,2.43
2023-01-22T05:19:05.977Z,2.43
2023-01-22T05:22:12.925Z,2.44
2023-01-22T05:25:15.194Z,2.44
2023-01-22T05:28:14.990Z,2.43
2023-01-22T05:31:44.166Z,2.37
2023-01-22T05:34:59.951Z,2.31
2023-01-22T05:38:02.930Z,2.24
2023-01-22T05:41:03.994Z,2.15
2023-01-22T05:44:05.940Z,2.09
2023-01-22T05:47:08.005Z,2.04
2023-01-22T05:50:15.016Z,2.05
2023-01-22T05:53:20.967Z,2.06
2023-01-22T05:56:22.982Z,2.06
2023-01-22T05:59:25.018Z,2.09
2023-01-22T06:02:28.074Z,2.12
2023-01-22T06:05:30.017Z,2.14
2023-01-22T06:08:35.040Z,2.09
2023-01-22T06:11:35.005Z,2.03
2023-01-22T06:14:37.002Z,1.99
2023-01-22T06:17:39.982Z,1.94
2023-01-22T06:20:43.088Z,1.91
2023-01-22T06:23:43.002Z,1.92
2023-01-22T06:26:44.234Z,1.95
2023-01-22T06:29:46.030Z,1.98
2023-01-22T06:32:46.076Z,2.04
2023-01-22T06:35:46.042Z,2.05
2023-01-22T06:38:47.079Z,2.09
2023-01-22T06:41:57.055Z,2.07
2023-01-22T06:44:59.101Z,2.03
2023-01-22T06:48:01.389Z,1.97
2023-01-22T06:51:02.098Z,1.90
2023-01-22T06:54:02.080Z,1.88
2023-01-22T06:57:03.100Z,1.88
2023-01-22T07:00:03.086Z,1.88
2023-01-22T07:03:03.079Z,1.88
2023-01-22T07:06:09.104Z,1.87
2023-01-22T07:09:10.068Z,1.86
2023-01-22T07:12:10.102Z,1.89
2023-01-22T07:15:13.096Z,1.94
2023-01-22T07:18:15.424Z,2.01
2023-01-22T07:21:17.131Z,2.02
2023-01-22T07:24:17.252Z,2.02
2023-01-22T07:27:18.136Z,2.01
2023-01-22T07:30:19.410Z,2.08
2023-01-22T07:33:20.122Z,2.14
2023-01-22T07:36:21.135Z,2.15
2023-01-22T07:39:23.201Z,2.11
2023-01-22T07:42:23.154Z,2.10
2023-01-22T07:45:27.180Z,2.12
2023-01-22T07:48:30.165Z,2.16
2023-01-22T07:51:31.200Z,2.13
2023-01-22T07:54:34.168Z,2.08
2023-01-22T07:57:34.193Z,2.04
2023-01-22T08:00:34.204Z,2.01
2023-01-22T08:03:34.208Z,1.99
2023-01-22T08:06:34.196Z,2.04
2023-01-22T08:09:37.198Z,2.09
2023-01-22T08:12:38.282Z,2.12
2023-01-22T08:15:38.289Z,2.15
2023-01-22T08:18:38.233Z,2.17
2023-01-22T08:21:39.339Z,2.17
2023-01-22T08:24:40.216Z,2.12
2023-01-22T08:27:41.240Z,2.08
2023-01-22T08:30:48.302Z,2.06
2023-01-22T08:33:49.257Z,2.12
2023-01-22T08:36:49.287Z,2.17
2023-01-22T08:39:50.248Z,2.20
2023-01-22T08:42:51.811Z,2.22
2023-01-22T08:45:52.452Z,2.28
2023-01-22T08:48:54.305Z,2.30
2023-01-22T08:51:56.295Z,2.31
2023-01-22T08:55:00.361Z,2.32
2023-01-22T08:58:08.280Z,2.31
2023-01-22T09:01:08.314Z,2.31
2023-01-22T09:04:08.302Z,2.34
2023-01-22T09:07:10.900Z,2.36
2023-01-22T09:10:14.334Z,2.41
2023-01-22T09:13:16.300Z,2.41
2023-01-22T09:16:17.847Z,2.38
2023-01-22T09:19:19.335Z,2.34
2023-01-22T09:22:19.800Z,2.32
2023-01-22T09:25:24.326Z,2.35
2023-01-22T09:28:24.358Z,2.36
2023-01-22T09:31:27.387Z,2.35
2023-01-22T09:34:27.349Z,2.32
2023-01-22T09:37:28.323Z,2.28
2023-01-22T13:22:10.894Z,1.17
2023-01-22T13:25:11.910Z,1.21
2023-01-22T13:28:11.864Z,1.27
2023-01-22T13:31:17.072Z,1.32
2023-01-22T13:34:16.924Z,1.33
2023-01-22T13:37:16.939Z,1.29
2023-01-22T13:40:27.951Z,1.26
2023-01-22T13:43:29.901Z,1.22
2023-01-22T13:46:32.016Z,1.15
2023-01-22T13:49:43.970Z,1.06
2023-01-22T13:52:44.068Z,1.03
2023-01-22T13:55:46.919Z,1.01
2023-01-22T13:58:52.426Z,0.96
2023-01-22T14:01:53.072Z,0.86
2023-01-22T14:04:53.958Z,0.83
2023-01-22T14:07:55.977Z,0.80
2023-01-22T14:11:09.934Z,0.81
2023-01-22T14:14:11.951Z,0.86
2023-01-22T14:17:12.013Z,0.91
2023-01-22T14:20:13.031Z,0.94
2023-01-22T14:23:14.044Z,0.91
2023-01-22T14:26:19.073Z,0.87
2023-01-22T14:29:19.003Z,0.87
2023-01-22T14:32:19.980Z,0.90
2023-01-22T14:35:35.226Z,0.91
2023-01-22T14:38:35.062Z,0.92
2023-01-22T14:41:35.979Z,0.86
2023-01-22T14:44:36.020Z,0.82
2023-01-22T14:47:41.001Z,0.77
2023-01-22T14:50:44.599Z,0.74
2023-01-22T14:53:48.063Z,0.69
2023-01-22T14:56:55.062Z,0.60
2023-01-22T14:59:49.100Z,0.57
2023-01-22T15:02:49.162Z,0.54
2023-01-22T15:05:51.008Z,0.47
2023-01-22T15:08:53.055Z,0.40
2023-01-22T15:11:53.068Z,0.32
2023-01-22T15:14:54.036Z,0.29
2023-01-22T15:17:55.061Z,0.30
2023-01-22T15:20:56.094Z,0.29
2023-01-22T15:23:57.070Z,0.28
2023-01-22T15:26:57.036Z,0.26
2023-01-22T15:29:58.128Z,0.22
2023-01-22T15:32:59.264Z,0.22
2023-01-22T15:35:59.154Z,0.21
2023-01-22T15:38:59.151Z,0.19
2023-01-22T15:41:59.131Z,0.18
2023-01-22T15:44:59.112Z,0.16
2023-01-22T15:48:01.174Z,0.12
2023-01-22T15:51:01.171Z,0.07
2023-01-22T15:54:02.146Z,0.06
2023-01-22T15:57:02.096Z,0.04
2023-01-22T16:00:02.212Z,-0.10
2023-01-22T16:03:05.121Z,-0.26
2023-01-22T16:06:05.120Z,-0.36
2023-01-22T16:09:06.169Z,-0.37
2023-01-22T16:12:06.162Z,-0.34
2023-01-22T16:15:06.178Z,-0.38
2023-01-22T16:18:07.186Z,-0.44
2023-01-22T16:21:07.190Z,-0.52
2023-01-22T16:24:08.179Z,-0.54
2023-01-22T16:27:08.208Z,-0.52
2023-01-22T16:30:08.163Z,-0.52
2023-01-22T16:33:10.206Z,-0.51
2023-01-22T16:36:14.169Z,-0.55
2023-01-22T16:39:14.218Z,-0.56
2023-01-22T16:42:14.166Z,-0.56
2023-01-22T16:45:14.243Z,-0.60
2023-01-22T16:48:14.346Z,-0.62
2023-01-22T16:51:15.330Z,-0.62
2023-01-22T16:54:15.212Z,-0.62
2023-01-22T16:57:17.285Z,-0.66
2023-01-22T17:00:18.792Z,-0.67
2023-01-22T17:03:22.218Z,-0.70
2023-01-22T17:06:36.216Z,-0.71
2023-01-22T17:09:39.311Z,-0.69
2023-01-22T17:12:39.362Z,-0.69
2023-01-22T17:15:40.276Z,-0.70
2023-01-22T17:18:41.263Z,-0.74
2023-01-22T17:21:41.600Z,-0.76
2023-01-22T17:24:41.550Z,-0.75
2023-01-22T17:27:46.284Z,-0.75
2023-01-22T17:30:51.460Z,-0.75
2023-01-22T17:33:53.551Z,-0.71
2023-01-22T17:37:00.355Z,-0.71
2023-01-22T17:40:02.331Z,-0.69
2023-01-22T17:43:02.262Z,-0.65
2023-01-22T17:46:02.413Z,-0.64
2023-01-22T17:49:03.288Z,-0.65
2023-01-22T17:52:03.339Z,-0.62
2023-01-22T17:55:06.421Z,-0.58
2023-01-22T17:58:09.333Z,-0.54
2023-01-22T18:01:15.436Z,-0.52
2023-01-22T18:04:21.358Z,-0.50
2023-01-22T18:07:24.456Z,-0.52
2023-01-22T18:10:31.398Z,-0.55
2023-01-22T18:13:32.351Z,-0.55
2023-01-22T18:16:33.399Z,-0.60
2023-01-22T18:19:33.398Z,-0.67
2023-01-22T18:22:35.475Z,-0.68
2023-01-22T18:25:39.388Z,-0.68
2023-01-22T18:28:40.452Z,-0.75
2023-01-22T18:31:42.715Z,-0.78
2023-01-22T18:34:44.399Z,-0.84
2023-01-22T18:37:46.383Z,-0.89
2023-01-22T18:40:50.394Z,-0.88
2023-01-22T18:43:53.525Z,-0.90
2023-01-22T18:46:58.726Z,-0.94
2023-01-22T18:49:58.418Z,-0.90
2023-01-22T18:53:01.447Z,-0.85
2023-01-22T18:56:02.481Z,-0.82
2023-01-22T18:59:03.401Z,-0.80
2023-01-22T19:02:04.419Z,-0.84
2023-01-22T19:05:05.400Z,-0.85
2023-01-22T19:08:05.435Z,-0.83
2023-01-22T19:11:09.650Z,-0.82
2023-01-22T19:14:12.660Z,-0.84
2023-01-22T19:17:13.468Z,-0.86
2023-01-22T19:20:17.423Z,-0.83
2023-01-22T19:23:18.470Z,-0.83
2023-01-22T19:26:22.492Z,-0.87
2023-01-22T19:29:32.925Z,-0.95
2023-01-22T19:32:37.458Z,-0.99
2023-01-22T19:35:37.461Z,-1.03
2023-01-22T19:38:37.685Z,-1.03
2023-01-22T19:41:38.560Z,-1.06
2023-01-22T19:44:38.480Z,-1.11
2023-01-22T19:47:38.493Z,-1.15
2023-01-22T19:50:41.354Z,-1.15
2023-01-22T19:53:46.771Z,-1.16
2023-01-22T19:56:49.495Z,-1.17
2023-01-22T19:59:50.516Z,-1.14
2023-01-22T20:02:55.794Z,-1.11
2023-01-22T20:05:58.523Z,-1.07
2023-01-22T20:08:59.526Z,-1.05
2023-01-22T20:12:04.602Z,-1.02
2023-01-22T20:15:04.561Z,-1.02
2023-01-22T20:18:08.517Z,-1.03
2023-01-22T20:21:08.545Z,-0.98
2023-01-22T20:24:11.831Z,-1.01
2023-01-22T20:27:17.689Z,-1.03
2023-01-22T20:30:20.672Z,-1.03
2023-01-22T20:33:20.547Z,-1.01
2023-01-22T20:36:21.645Z,-0.97
2023-01-22T20:39:25.995Z,-0.96
2023-01-22T20:42:26.882Z,-0.90
2023-01-22T20:45:27.761Z,-0.84
2023-01-22T20:48:29.595Z,-0.80
2023-01-22T20:51:38.651Z,-0.73
2023-01-22T20:55:01.387Z,-0.69
2023-01-22T20:58:06.888Z,-0.66
2023-01-22T21:01:09.016Z,-0.63
2023-01-22T21:04:15.289Z,-0.61
2023-01-22T21:07:16.774Z,-0.67
2023-01-22T21:10:20.824Z,-0.76
2023-01-22T21:13:26.441Z,-0.84
2023-01-22T21:16:35.750Z,-0.90
2023-01-22T21:19:38.782Z,-0.99
2023-01-22T21:22:38.630Z,-1.09
2023-01-22T21:25:39.680Z,-1.19
2023-01-22T21:28:41.669Z,-1.24
2023-01-22T21:31:44.005Z,-1.26
2023-01-22T21:34:46.899Z,-1.31
2023-01-22T21:37:48.675Z,-1.30
2023-01-22T21:40:49.722Z,-1.25
2023-01-22T21:44:10.769Z,-1.21
2023-01-22T21:47:11.988Z,-1.18
2023-01-22T21:50:11.694Z,-1.12
2023-01-22T21:53:12.735Z,-1.11
2023-01-22T21:56:13.724Z,-1.10
2023-01-22T21:59:15.342Z,-1.09
2023-01-22T22:02:17.750Z,-1.08
2023-01-22T22:05:19.090Z,-1.11
2023-01-22T22:08:19.731Z,-1.16
2023-01-22T22:11:19.759Z,-1.17
2023-01-22T22:14:27.001Z,-1.18
2023-01-22T22:17:28.761Z,-1.14
2023-01-22T22:20:28.775Z,-1.13
2023-01-22T22:23:29.738Z,-1.16
2023-01-22T22:26:30.755Z,-1.14
2023-01-22T22:29:32.140Z,-1.13
2023-01-22T22:32:37.164Z,-1.17
2023-01-22T22:35:39.892Z,-1.15
2023-01-22T22:38:39.886Z,-1.12
2023-01-22T22:41:46.278Z,-1.19
2023-01-22T22:44:51.216Z,-1.23
2023-01-22T22:47:50.991Z,-1.22
2023-01-22T22:50:52.813Z,-1.22
2023-01-22T22:53:53.935Z,-1.19
2023-01-22T22:56:58.891Z,-1.18
2023-01-22T22:59:58.793Z,-1.17
2023-01-22T23:02:58.841Z,-1.17
2023-01-22T23:05:59.838Z,-1.22
2023-01-22T23:09:06.855Z,-1.24
2023-01-22T23:12:07.009Z,-1.23
2023-01-22T23:15:08.242Z,-1.24
2023-01-22T23:18:07.944Z,-1.24
2023-01-22T23:21:07.893Z,-1.28
2023-01-22T23:24:09.237Z,-1.25
2023-01-22T23:27:09.903Z,-1.22
2023-01-22T23:30:09.867Z,-1.25
2023-01-22T23:33:12.103Z,-1.28
2023-01-22T23:36:18.854Z,-1.29
2023-01-22T23:39:20.857Z,-1.24
2023-01-22T23:42:21.930Z,-1.21
2023-01-22T23:45:25.860Z,-1.19
2023-01-22T23:48:25.885Z,-1.20
2023-01-22T23:51:26.949Z,-1.16
2023-01-22T23:54:28.904Z,-1.10
2023-01-22T23:57:29.943Z,-1.08
